sensor_id;sensor_type;location;lat;lon;timestamp;P1;durP1;ratioP1;P2;durP2;ratioP2
27576;SDS011;15011;53.380;10.034;2023-07-29T00:00:20;7.77;;;5.20;;
27576;SDS011;15011;53.380;10.034;2023-07-29T00:05:21;5.80;;;5.20;;
27576;SDS011;15011;53.380;10.034;2023-07-29T00:10:22;7.23;;;5.17;;
27576;SDS011;15011;53.380;10.034;2023-07-29T00:15:23;7.07;;;5.82;;
27576;SDS011;15011;53.380;10.034;2023-07-29T00:20:23;6.93;;;5.95;;
27576;SDS011;15011;53.380;10.034;2023-07-29T00:25:24;5.78;;;5.15;;
27576;SDS011;15011;53.380;10.034;2023-07-29T00:30:24;6.90;;;5.22;;
27576;SDS011;15011;53.380;10.034;2023-07-29T00:35:24;7.53;;;5.72;;
27576;SDS011;15011;53.380;10.034;2023-07-29T00:40:25;6.17;;;5.57;;
27576;SDS011;15011;53.380;10.034;2023-07-29T00:45:28;8.07;;;5.50;;
27576;SDS011;15011;53.380;10.034;2023-07-29T00:50:29;6.53;;;5.57;;
27576;SDS011;15011;53.380;10.034;2023-07-29T00:55:31;7.50;;;5.55;;
27576;SDS011;15011;53.380;10.034;2023-07-29T01:00:31;5.45;;;4.95;;
27576;SDS011;15011;53.380;10.034;2023-07-29T01:05:32;7.30;;;6.37;;
27576;SDS011;15011;53.380;10.034;2023-07-29T01:16:35;7.50;;;6.28;;
27576;SDS011;15011;53.380;10.034;2023-07-29T01:21:40;7.55;;;6.20;;
27576;SDS011;15011;53.380;10.034;2023-07-29T01:26:41;9.50;;;6.43;;
27576;SDS011;15011;53.380;10.034;2023-07-29T01:31:43;7.20;;;5.53;;
27576;SDS011;15011;53.380;10.034;2023-07-29T01:36:44;10.85;;;6.60;;
27576;SDS011;15011;53.380;10.034;2023-07-29T01:41:45;11.93;;;5.88;;
27576;SDS011;15011;53.380;10.034;2023-07-29T01:46:46;10.23;;;6.73;;
27576;SDS011;15011;53.380;10.034;2023-07-29T01:51:47;8.20;;;7.28;;
27576;SDS011;15011;53.380;10.034;2023-07-29T01:56:47;8.53;;;7.37;;
27576;SDS011;15011;53.380;10.034;2023-07-29T02:01:48;7.43;;;6.55;;
27576;SDS011;15011;53.380;10.034;2023-07-29T02:06:49;8.27;;;6.22;;
27576;SDS011;15011;53.380;10.034;2023-07-29T02:11:49;7.57;;;6.18;;
27576;SDS011;15011;53.380;10.034;2023-07-29T02:16:50;8.20;;;6.10;;
27576;SDS011;15011;53.380;10.034;2023-07-29T02:21:50;7.97;;;6.65;;
27576;SDS011;15011;53.380;10.034;2023-07-29T02:26:50;7.87;;;6.70;;
27576;SDS011;15011;53.380;10.034;2023-07-29T02:31:51;8.60;;;6.33;;
27576;SDS011;15011;53.380;10.034;2023-07-29T02:36:51;7.40;;;6.43;;
27576;SDS011;15011;53.380;10.034;2023-07-29T02:41:52;7.90;;;6.70;;
27576;SDS011;15011;53.380;10.034;2023-07-29T02:46:52;8.07;;;6.65;;
27576;SDS011;15011;53.380;10.034;2023-07-29T02:51:54;8.98;;;7.10;;
27576;SDS011;15011;53.380;10.034;2023-07-29T02:56:55;8.43;;;7.23;;
27576;SDS011;15011;53.380;10.034;2023-07-29T03:01:55;7.57;;;6.77;;
27576;SDS011;15011;53.380;10.034;2023-07-29T03:06:56;10.13;;;7.57;;
27576;SDS011;15011;53.380;10.034;2023-07-29T03:11:56;10.33;;;8.53;;
27576;SDS011;15011;53.380;10.034;2023-07-29T03:16:57;11.37;;;8.10;;
27576;SDS011;15011;53.380;10.034;2023-07-29T03:21:58;12.00;;;9.27;;
27576;SDS011;15011;53.380;10.034;2023-07-29T03:26:58;9.93;;;8.50;;
27576;SDS011;15011;53.380;10.034;2023-07-29T03:31:59;11.00;;;8.37;;
27576;SDS011;15011;53.380;10.034;2023-07-29T03:37:00;11.43;;;8.53;;
27576;SDS011;15011;53.380;10.034;2023-07-29T03:42:01;15.85;;;10.57;;
27576;SDS011;15011;53.380;10.034;2023-07-29T03:47:01;11.50;;;9.20;;
27576;SDS011;15011;53.380;10.034;2023-07-29T03:52:02;14.20;;;10.40;;
27576;SDS011;15011;53.380;10.034;2023-07-29T03:57:02;19.08;;;11.88;;
27576;SDS011;15011;53.380;10.034;2023-07-29T04:02:03;15.63;;;12.20;;
27576;SDS011;15011;53.380;10.034;2023-07-29T04:07:03;16.08;;;11.88;;
27576;SDS011;15011;53.380;10.034;2023-07-29T04:12:04;19.10;;;13.10;;
27576;SDS011;15011;53.380;10.034;2023-07-29T04:17:05;20.90;;;12.80;;
27576;SDS011;15011;53.380;10.034;2023-07-29T04:22:06;19.15;;;11.57;;
27576;SDS011;15011;53.380;10.034;2023-07-29T04:27:06;24.55;;;14.75;;
27576;SDS011;15011;53.380;10.034;2023-07-29T04:32:07;31.60;;;16.93;;
27576;SDS011;15011;53.380;10.034;2023-07-29T04:37:07;33.88;;;17.13;;
27576;SDS011;15011;53.380;10.034;2023-07-29T04:42:08;28.13;;;15.90;;
27576;SDS011;15011;53.380;10.034;2023-07-29T04:47:08;30.50;;;16.50;;
27576;SDS011;15011;53.380;10.034;2023-07-29T04:52:09;30.30;;;17.27;;
27576;SDS011;15011;53.380;10.034;2023-07-29T04:57:09;28.13;;;17.20;;
27576;SDS011;15011;53.380;10.034;2023-07-29T05:02:10;22.47;;;14.57;;
27576;SDS011;15011;53.380;10.034;2023-07-29T05:07:10;26.75;;;16.00;;
27576;SDS011;15011;53.380;10.034;2023-07-29T05:12:10;26.13;;;16.27;;
27576;SDS011;15011;53.380;10.034;2023-07-29T05:17:11;28.70;;;17.90;;
27576;SDS011;15011;53.380;10.034;2023-07-29T05:22:11;29.80;;;18.17;;
27576;SDS011;15011;53.380;10.034;2023-07-29T05:27:12;25.70;;;14.93;;
27576;SDS011;15011;53.380;10.034;2023-07-29T05:32:12;24.00;;;15.97;;
27576;SDS011;15011;53.380;10.034;2023-07-29T05:37:13;28.08;;;18.15;;
27576;SDS011;15011;53.380;10.034;2023-07-29T05:42:13;27.93;;;17.33;;
27576;SDS011;15011;53.380;10.034;2023-07-29T05:47:14;23.17;;;14.27;;
27576;SDS011;15011;53.380;10.034;2023-07-29T05:52:14;23.63;;;14.03;;
27576;SDS011;15011;53.380;10.034;2023-07-29T05:57:15;22.88;;;15.63;;
27576;SDS011;15011;53.380;10.034;2023-07-29T06:02:15;22.58;;;14.73;;
27576;SDS011;15011;53.380;10.034;2023-07-29T06:07:16;21.07;;;14.23;;
27576;SDS011;15011;53.380;10.034;2023-07-29T06:12:16;26.23;;;14.93;;
27576;SDS011;15011;53.380;10.034;2023-07-29T06:17:17;18.27;;;13.67;;
27576;SDS011;15011;53.380;10.034;2023-07-29T06:22:17;19.17;;;14.07;;
27576;SDS011;15011;53.380;10.034;2023-07-29T06:27:18;18.50;;;14.47;;
27576;SDS011;15011;53.380;10.034;2023-07-29T06:32:18;12.67;;;9.17;;
27576;SDS011;15011;53.380;10.034;2023-07-29T06:37:19;15.33;;;11.00;;
27576;SDS011;15011;53.380;10.034;2023-07-29T06:42:19;16.63;;;10.73;;
27576;SDS011;15011;53.380;10.034;2023-07-29T06:47:19;13.57;;;10.35;;
27576;SDS011;15011;53.380;10.034;2023-07-29T06:52:20;14.50;;;10.10;;
27576;SDS011;15011;53.380;10.034;2023-07-29T06:57:20;13.13;;;10.05;;
27576;SDS011;15011;53.380;10.034;2023-07-29T07:02:21;10.80;;;8.67;;
27576;SDS011;15011;53.380;10.034;2023-07-29T07:07:23;11.32;;;9.07;;
27576;SDS011;15011;53.380;10.034;2023-07-29T07:12:23;10.90;;;9.32;;
27576;SDS011;15011;53.380;10.034;2023-07-29T07:17:24;9.93;;;8.60;;
27576;SDS011;15011;53.380;10.034;2023-07-29T07:22:24;10.25;;;7.60;;
27576;SDS011;15011;53.380;10.034;2023-07-29T07:27:25;9.53;;;8.13;;
27576;SDS011;15011;53.380;10.034;2023-07-29T07:32:25;8.73;;;7.47;;
27576;SDS011;15011;53.380;10.034;2023-07-29T07:37:26;8.27;;;7.47;;
27576;SDS011;15011;53.380;10.034;2023-07-29T07:42:26;7.38;;;6.68;;
27576;SDS011;15011;53.380;10.034;2023-07-29T07:47:27;8.48;;;7.47;;
27576;SDS011;15011;53.380;10.034;2023-07-29T07:52:28;8.52;;;7.72;;
27576;SDS011;15011;53.380;10.034;2023-07-29T07:57:28;8.83;;;6.63;;
27576;SDS011;15011;53.380;10.034;2023-07-29T08:02:28;7.30;;;6.60;;
27576;SDS011;15011;53.380;10.034;2023-07-29T08:07:29;7.40;;;6.70;;
27576;SDS011;15011;53.380;10.034;2023-07-29T08:12:29;8.55;;;7.65;;
27576;SDS011;15011;53.380;10.034;2023-07-29T08:17:30;8.17;;;7.07;;
27576;SDS011;15011;53.380;10.034;2023-07-29T08:22:30;8.33;;;7.10;;
27576;SDS011;15011;53.380;10.034;2023-07-29T08:27:33;8.48;;;7.43;;
27576;SDS011;15011;53.380;10.034;2023-07-29T08:32:33;7.55;;;6.63;;
27576;SDS011;15011;53.380;10.034;2023-07-29T08:37:34;8.65;;;7.38;;
27576;SDS011;15011;53.380;10.034;2023-07-29T08:42:34;8.67;;;7.10;;
27576;SDS011;15011;53.380;10.034;2023-07-29T08:47:37;7.90;;;7.20;;
27576;SDS011;15011;53.380;10.034;2023-07-29T08:52:38;8.97;;;7.37;;
27576;SDS011;15011;53.380;10.034;2023-07-29T08:57:39;9.55;;;8.13;;
27576;SDS011;15011;53.380;10.034;2023-07-29T09:02:39;9.15;;;7.10;;
27576;SDS011;15011;53.380;10.034;2023-07-29T09:07:40;9.37;;;7.47;;
27576;SDS011;15011;53.380;10.034;2023-07-29T09:12:41;9.63;;;8.35;;
27576;SDS011;15011;53.380;10.034;2023-07-29T09:17:42;8.27;;;7.38;;
27576;SDS011;15011;53.380;10.034;2023-07-29T09:22:43;8.30;;;7.43;;
27576;SDS011;15011;53.380;10.034;2023-07-29T09:27:44;8.80;;;7.22;;
27576;SDS011;15011;53.380;10.034;2023-07-29T09:32:44;7.20;;;6.57;;
27576;SDS011;15011;53.380;10.034;2023-07-29T09:37:44;8.73;;;7.93;;
27576;SDS011;15011;53.380;10.034;2023-07-29T09:42:49;8.13;;;6.50;;
27576;SDS011;15011;53.380;10.034;2023-07-29T09:47:51;7.10;;;5.80;;
27576;SDS011;15011;53.380;10.034;2023-07-29T09:52:52;8.82;;;7.80;;
27576;SDS011;15011;53.380;10.034;2023-07-29T09:57:57;7.93;;;7.18;;
27576;SDS011;15011;53.380;10.034;2023-07-29T10:03:00;8.18;;;7.38;;
27576;SDS011;15011;53.380;10.034;2023-07-29T10:08:01;8.73;;;7.85;;
27576;SDS011;15011;53.380;10.034;2023-07-29T10:13:01;5.78;;;5.28;;
27576;SDS011;15011;53.380;10.034;2023-07-29T10:18:03;6.28;;;5.68;;
27576;SDS011;15011;53.380;10.034;2023-07-29T10:23:04;5.88;;;5.25;;
27576;SDS011;15011;53.380;10.034;2023-07-29T10:28:07;5.55;;;5.05;;
27576;SDS011;15011;53.380;10.034;2023-07-29T10:33:08;6.00;;;5.50;;
27576;SDS011;15011;53.380;10.034;2023-07-29T10:38:10;6.05;;;5.28;;
27576;SDS011;15011;53.380;10.034;2023-07-29T10:43:11;5.18;;;4.68;;
27576;SDS011;15011;53.380;10.034;2023-07-29T10:48:13;4.70;;;4.30;;
27576;SDS011;15011;53.380;10.034;2023-07-29T10:53:36;5.50;;;5.10;;
27576;SDS011;15011;53.380;10.034;2023-07-29T10:58:37;5.22;;;4.82;;
27576;SDS011;15011;53.380;10.034;2023-07-29T11:03:37;5.10;;;4.60;;
27576;SDS011;15011;53.380;10.034;2023-07-29T11:08:38;5.07;;;4.53;;
27576;SDS011;15011;53.380;10.034;2023-07-29T11:13:38;4.97;;;4.57;;
27576;SDS011;15011;53.380;10.034;2023-07-29T11:18:39;4.13;;;3.83;;
27576;SDS011;15011;53.380;10.034;2023-07-29T11:23:41;3.83;;;3.42;;
27576;SDS011;15011;53.380;10.034;2023-07-29T11:28:42;5.23;;;2.47;;
27576;SDS011;15011;53.380;10.034;2023-07-29T11:33:42;3.50;;;2.97;;
27576;SDS011;15011;53.380;10.034;2023-07-29T11:38:43;4.83;;;4.40;;
27576;SDS011;15011;53.380;10.034;2023-07-29T11:43:44;6.30;;;5.47;;
27576;SDS011;15011;53.380;10.034;2023-07-29T11:48:44;5.65;;;5.03;;
27576;SDS011;15011;53.380;10.034;2023-07-29T11:53:45;4.60;;;4.20;;
27576;SDS011;15011;53.380;10.034;2023-07-29T11:58:45;5.50;;;4.53;;
27576;SDS011;15011;53.380;10.034;2023-07-29T12:03:46;4.77;;;4.33;;
27576;SDS011;15011;53.380;10.034;2023-07-29T12:08:46;4.47;;;4.10;;
27576;SDS011;15011;53.380;10.034;2023-07-29T12:13:47;3.70;;;3.35;;
27576;SDS011;15011;53.380;10.034;2023-07-29T12:18:47;4.67;;;4.27;;
27576;SDS011;15011;53.380;10.034;2023-07-29T12:23:50;3.42;;;3.13;;
27576;SDS011;15011;53.380;10.034;2023-07-29T12:28:51;3.67;;;3.38;;
27576;SDS011;15011;53.380;10.034;2023-07-29T12:33:55;3.67;;;3.37;;
27576;SDS011;15011;53.380;10.034;2023-07-29T12:38:59;3.20;;;2.90;;
27576;SDS011;15011;53.380;10.034;2023-07-29T12:43:59;2.78;;;2.58;;
27576;SDS011;15011;53.380;10.034;2023-07-29T12:49:00;3.10;;;2.80;;
27576;SDS011;15011;53.380;10.034;2023-07-29T12:54:00;2.60;;;2.40;;
27576;SDS011;15011;53.380;10.034;2023-07-29T12:59:01;2.53;;;2.05;;
27576;SDS011;15011;53.380;10.034;2023-07-29T13:04:02;2.80;;;2.60;;
27576;SDS011;15011;53.380;10.034;2023-07-29T13:09:02;2.78;;;2.58;;
27576;SDS011;15011;53.380;10.034;2023-07-29T13:14:03;4.63;;;2.70;;
27576;SDS011;15011;53.380;10.034;2023-07-29T13:19:04;3.05;;;2.85;;
27576;SDS011;15011;53.380;10.034;2023-07-29T13:24:04;3.00;;;2.70;;
27576;SDS011;15011;53.380;10.034;2023-07-29T13:29:04;3.40;;;3.10;;
27576;SDS011;15011;53.380;10.034;2023-07-29T13:34:05;2.80;;;2.60;;
27576;SDS011;15011;53.380;10.034;2023-07-29T13:39:05;3.10;;;2.80;;
27576;SDS011;15011;53.380;10.034;2023-07-29T13:44:06;3.20;;;2.90;;
27576;SDS011;15011;53.380;10.034;2023-07-29T13:49:06;3.47;;;3.17;;
27576;SDS011;15011;53.380;10.034;2023-07-29T13:54:07;2.60;;;2.40;;
27576;SDS011;15011;53.380;10.034;2023-07-29T13:59:07;2.97;;;2.77;;
27576;SDS011;15011;53.380;10.034;2023-07-29T14:04:08;3.72;;;3.00;;
27576;SDS011;15011;53.380;10.034;2023-07-29T14:09:08;3.47;;;2.60;;
27576;SDS011;15011;53.380;10.034;2023-07-29T14:14:09;2.77;;;2.60;;
27576;SDS011;15011;53.380;10.034;2023-07-29T14:19:09;2.85;;;2.65;;
27576;SDS011;15011;53.380;10.034;2023-07-29T14:24:10;3.37;;;2.47;;
27576;SDS011;15011;53.380;10.034;2023-07-29T14:29:10;2.67;;;2.30;;
27576;SDS011;15011;53.380;10.034;2023-07-29T14:34:10;3.13;;;2.50;;
27576;SDS011;15011;53.380;10.034;2023-07-29T14:39:11;2.40;;;2.20;;
27576;SDS011;15011;53.380;10.034;2023-07-29T14:44:11;2.67;;;2.10;;
27576;SDS011;15011;53.380;10.034;2023-07-29T14:49:12;4.18;;;2.08;;
27576;SDS011;15011;53.380;10.034;2023-07-29T14:54:12;2.40;;;2.03;;
27576;SDS011;15011;53.380;10.034;2023-07-29T14:59:13;2.87;;;1.57;;
27576;SDS011;15011;53.380;10.034;2023-07-29T15:04:13;2.63;;;2.07;;
27576;SDS011;15011;53.380;10.034;2023-07-29T15:09:14;1.80;;;1.70;;
27576;SDS011;15011;53.380;10.034;2023-07-29T15:14:14;3.70;;;2.37;;
27576;SDS011;15011;53.380;10.034;2023-07-29T15:19:15;2.28;;;2.08;;
27576;SDS011;15011;53.380;10.034;2023-07-29T15:24:16;2.17;;;1.93;;
27576;SDS011;15011;53.380;10.034;2023-07-29T15:29:16;2.80;;;2.03;;
27576;SDS011;15011;53.380;10.034;2023-07-29T15:34:16;2.30;;;1.90;;
27576;SDS011;15011;53.380;10.034;2023-07-29T15:39:17;1.80;;;1.70;;
27576;SDS011;15011;53.380;10.034;2023-07-29T15:44:17;2.20;;;2.00;;
27576;SDS011;15011;53.380;10.034;2023-07-29T15:49:18;2.10;;;1.80;;
27576;SDS011;15011;53.380;10.034;2023-07-29T15:54:18;1.97;;;1.40;;
27576;SDS011;15011;53.380;10.034;2023-07-29T15:59:19;2.03;;;1.83;;
27576;SDS011;15011;53.380;10.034;2023-07-29T16:04:19;1.97;;;1.80;;
27576;SDS011;15011;53.380;10.034;2023-07-29T16:09:20;2.23;;;2.03;;
27576;SDS011;15011;53.380;10.034;2023-07-29T16:14:21;3.38;;;1.88;;
27576;SDS011;15011;53.380;10.034;2023-07-29T16:19:24;4.10;;;2.10;;
27576;SDS011;15011;53.380;10.034;2023-07-29T16:24:26;3.63;;;2.33;;
27576;SDS011;15011;53.380;10.034;2023-07-29T16:29:26;1.97;;;1.57;;
27576;SDS011;15011;53.380;10.034;2023-07-29T16:34:26;3.90;;;2.23;;
27576;SDS011;15011;53.380;10.034;2023-07-29T16:39:27;3.10;;;2.85;;
27576;SDS011;15011;53.380;10.034;2023-07-29T16:44:28;4.65;;;3.08;;
27576;SDS011;15011;53.380;10.034;2023-07-29T16:49:29;5.15;;;3.13;;
27576;SDS011;15011;53.380;10.034;2023-07-29T16:54:29;5.78;;;3.78;;
27576;SDS011;15011;53.380;10.034;2023-07-29T16:59:30;4.47;;;3.93;;
27576;SDS011;15011;53.380;10.034;2023-07-29T17:04:30;3.53;;;3.10;;
27576;SDS011;15011;53.380;10.034;2023-07-29T17:09:30;4.03;;;3.13;;
27576;SDS011;15011;53.380;10.034;2023-07-29T17:14:31;5.35;;;3.10;;
27576;SDS011;15011;53.380;10.034;2023-07-29T17:19:31;5.20;;;2.80;;
27576;SDS011;15011;53.380;10.034;2023-07-29T17:24:32;3.97;;;2.80;;
27576;SDS011;15011;53.380;10.034;2023-07-29T17:29:33;3.88;;;2.70;;
27576;SDS011;15011;53.380;10.034;2023-07-29T17:34:33;4.35;;;3.13;;
27576;SDS011;15011;53.380;10.034;2023-07-29T17:39:33;3.83;;;2.73;;
27576;SDS011;15011;53.380;10.034;2023-07-29T17:44:35;4.88;;;3.22;;
27576;SDS011;15011;53.380;10.034;2023-07-29T17:49:36;4.35;;;2.90;;
27576;SDS011;15011;53.380;10.034;2023-07-29T17:54:37;3.83;;;2.47;;
27576;SDS011;15011;53.380;10.034;2023-07-29T17:59:39;4.93;;;2.75;;
27576;SDS011;15011;53.380;10.034;2023-07-29T18:04:40;2.97;;;2.67;;
27576;SDS011;15011;53.380;10.034;2023-07-29T18:09:40;4.00;;;2.83;;
27576;SDS011;15011;53.380;10.034;2023-07-29T18:14:40;3.17;;;2.87;;
27576;SDS011;15011;53.380;10.034;2023-07-29T18:19:41;6.00;;;4.10;;
27576;SDS011;15011;53.380;10.034;2023-07-29T18:24:43;4.30;;;3.22;;
27576;SDS011;15011;53.380;10.034;2023-07-29T18:29:44;4.63;;;3.97;;
27576;SDS011;15011;53.380;10.034;2023-07-29T18:34:44;3.80;;;3.33;;
27576;SDS011;15011;53.380;10.034;2023-07-29T18:39:45;5.47;;;3.47;;
27576;SDS011;15011;53.380;10.034;2023-07-29T18:44:45;5.50;;;4.13;;
27576;SDS011;15011;53.380;10.034;2023-07-29T18:49:46;5.23;;;3.60;;
27576;SDS011;15011;53.380;10.034;2023-07-29T18:54:46;3.72;;;3.22;;
27576;SDS011;15011;53.380;10.034;2023-07-29T18:59:47;3.57;;;3.27;;
27576;SDS011;15011;53.380;10.034;2023-07-29T19:04:47;4.60;;;4.13;;
27576;SDS011;15011;53.380;10.034;2023-07-29T19:09:48;5.00;;;4.45;;
27576;SDS011;15011;53.380;10.034;2023-07-29T19:14:49;7.20;;;3.95;;
27576;SDS011;15011;53.380;10.034;2023-07-29T19:19:49;7.67;;;6.13;;
27576;SDS011;15011;53.380;10.034;2023-07-29T19:24:50;5.78;;;5.18;;
27576;SDS011;15011;53.380;10.034;2023-07-29T19:29:50;6.32;;;4.85;;
27576;SDS011;15011;53.380;10.034;2023-07-29T19:34:51;8.40;;;5.73;;
27576;SDS011;15011;53.380;10.034;2023-07-29T19:39:54;6.53;;;5.50;;
27576;SDS011;15011;53.380;10.034;2023-07-29T19:44:54;6.93;;;5.10;;
27576;SDS011;15011;53.380;10.034;2023-07-29T19:49:55;9.80;;;8.03;;
27576;SDS011;15011;53.380;10.034;2023-07-29T19:54:55;6.30;;;4.40;;
27576;SDS011;15011;53.380;10.034;2023-07-29T19:59:56;4.63;;;4.20;;
27576;SDS011;15011;53.380;10.034;2023-07-29T20:04:56;4.95;;;4.53;;
27576;SDS011;15011;53.380;10.034;2023-07-29T20:09:56;4.87;;;3.87;;
27576;SDS011;15011;53.380;10.034;2023-07-29T20:14:57;5.93;;;4.60;;
27576;SDS011;15011;53.380;10.034;2023-07-29T20:20:00;5.60;;;4.03;;
27576;SDS011;15011;53.380;10.034;2023-07-29T20:25:01;6.00;;;5.07;;
27576;SDS011;15011;53.380;10.034;2023-07-29T20:30:01;6.47;;;5.40;;
27576;SDS011;15011;53.380;10.034;2023-07-29T20:35:02;4.72;;;4.20;;
27576;SDS011;15011;53.380;10.034;2023-07-29T20:40:03;6.68;;;4.60;;
27576;SDS011;15011;53.380;10.034;2023-07-29T20:45:04;7.32;;;4.72;;
27576;SDS011;15011;53.380;10.034;2023-07-29T20:50:05;4.97;;;4.47;;
27576;SDS011;15011;53.380;10.034;2023-07-29T20:55:06;5.97;;;4.80;;
27576;SDS011;15011;53.380;10.034;2023-07-29T21:00:07;5.88;;;4.75;;
27576;SDS011;15011;53.380;10.034;2023-07-29T21:05:10;7.45;;;5.18;;
27576;SDS011;15011;53.380;10.034;2023-07-29T21:10:10;6.27;;;4.80;;
27576;SDS011;15011;53.380;10.034;2023-07-29T21:15:11;6.67;;;5.47;;
27576;SDS011;15011;53.380;10.034;2023-07-29T21:20:11;5.80;;;5.20;;
27576;SDS011;15011;53.380;10.034;2023-07-29T21:25:12;7.93;;;5.20;;
27576;SDS011;15011;53.380;10.034;2023-07-29T21:30:12;6.82;;;4.55;;
27576;SDS011;15011;53.380;10.034;2023-07-29T21:35:12;4.90;;;4.37;;
27576;SDS011;15011;53.380;10.034;2023-07-29T21:40:13;8.63;;;5.23;;
27576;SDS011;15011;53.380;10.034;2023-07-29T21:45:14;5.15;;;4.65;;
27576;SDS011;15011;53.380;10.034;2023-07-29T21:50:15;5.53;;;4.55;;
27576;SDS011;15011;53.380;10.034;2023-07-29T21:55:15;6.23;;;4.50;;
27576;SDS011;15011;53.380;10.034;2023-07-29T22:00:16;5.43;;;4.93;;
27576;SDS011;15011;53.380;10.034;2023-07-29T22:05:16;5.72;;;4.55;;
27576;SDS011;15011;53.380;10.034;2023-07-29T22:10:17;5.45;;;4.80;;
27576;SDS011;15011;53.380;10.034;2023-07-29T22:15:17;7.00;;;5.07;;
27576;SDS011;15011;53.380;10.034;2023-07-29T22:20:18;8.50;;;5.23;;
27576;SDS011;15011;53.380;10.034;2023-07-29T22:25:18;6.13;;;4.97;;
27576;SDS011;15011;53.380;10.034;2023-07-29T22:30:19;5.63;;;4.90;;
27576;SDS011;15011;53.380;10.034;2023-07-29T22:35:19;6.27;;;4.83;;
27576;SDS011;15011;53.380;10.034;2023-07-29T22:40:20;5.97;;;5.03;;
27576;SDS011;15011;53.380;10.034;2023-07-29T22:45:20;5.93;;;4.80;;
27576;SDS011;15011;53.380;10.034;2023-07-29T22:50:20;4.80;;;4.40;;
27576;SDS011;15011;53.380;10.034;2023-07-29T22:55:21;5.38;;;4.20;;
27576;SDS011;15011;53.380;10.034;2023-07-29T23:00:22;4.82;;;4.43;;
27576;SDS011;15011;53.380;10.034;2023-07-29T23:05:22;5.70;;;4.73;;
27576;SDS011;15011;53.380;10.034;2023-07-29T23:10:23;7.80;;;5.05;;
27576;SDS011;15011;53.380;10.034;2023-07-29T23:15:23;6.28;;;4.25;;
27576;SDS011;15011;53.380;10.034;2023-07-29T23:20:24;5.50;;;4.60;;
27576;SDS011;15011;53.380;10.034;2023-07-29T23:25:24;6.00;;;4.60;;
27576;SDS011;15011;53.380;10.034;2023-07-29T23:30:25;6.32;;;4.55;;
27576;SDS011;15011;53.380;10.034;2023-07-29T23:35:25;5.13;;;4.60;;
27576;SDS011;15011;53.380;10.034;2023-07-29T23:40:26;7.03;;;4.70;;
27576;SDS011;15011;53.380;10.034;2023-07-29T23:45:26;4.97;;;4.40;;
27576;SDS011;15011;53.380;10.034;2023-07-29T23:50:27;6.03;;;4.57;;
27576;SDS011;15011;53.380;10.034;2023-07-29T23:55:27;5.47;;;4.25;;
